Impacts TAF Board
For situational awareness. Not to be used for flight planning purposes.
IDs:

KDMN - Deming Muni, NM, US

Issued at 1720 UTC 08 Aug 2020
Updated at 2110 UTC 08 Aug 2020
Potential Impact None Slight Moderate High
Time2053Z 08/22Z 08/23Z 09/00Z 09/01Z 09/02Z 09/03Z 09/04Z 09/05Z 09/06Z 09/07Z 09/08Z 09/09Z 09/10Z>>
Type OBS PRVL PRVL PRVL PRVL PRVL PRVL PRVL PRVL PRVL PRVL PRVL PRVL PRVL
VIS 10 >6 >6 >6 >6 >6 >6 >6 >6 >6 >6 >6 >6 >6
CIG -- 120 120 -- -- -- -- -- -- -- -- -- -- --
Cover CLR BKN BKN SCT SCT SCT SCT SCT SCT SCT SCT SCT SCT SCT
FltCat VFR VFR VFR VFR VFR VFR VFR VFR VFR VFR VFR VFR VFR VFR
WX -- VCTS VCTS -- -- -- -- -- -- -- -- -- -- --
WDir VRB 170 170 290 290 290 290 290 290 290 290 290 290 290
WSpd 0 6 6 7 7 7 7 7 7 7 7 7 7 7
WGst -- -- -- -- -- -- -- -- -- -- -- -- -- --
Raw TAF
KDMN 081720Z 0818/0918 20005KT P6SM SKC
  FM082000 17006KT P6SM VCTS SCT080CB BKN120
  FM090000 29007KT P6SM SCT100 SCT250


Raw METAR
KDMN 082053Z AUTO 00000KT 10SM CLR 36/08 A3010 RMK AO2 SLP104 T03560083 58018 $
KDMN 081953Z AUTO 14006KT 10SM CLR 36/09 A3013 RMK AO2 SLP113 T03560089 $
KDMN 081853Z AUTO VRB04KT 10SM CLR 34/09 A3014 RMK AO2 SLP117 T03440094 $

METAR Board
Radar Display
Forecast Discussion
For situational awareness. Not to be used for flight planning purposes.